Time;durP1;ratioP1;P1;durP2;ratioP2;P2;SDS_P1;SDS_P2;PMS_P1;PMS_P2;Temp;Humidity;BMP_temperature;BMP_pressure;BME280_temperature;BME280_humidity;BME280_pressure;Samples;Min_cycle;Max_cycle;Signal;HPM_P1;HPM_P2
2023/10/23 00:01:41;;;;;;;6.90;4.30;;;;;;;11.54;100.00;100059.09;179703;1262;45211;-64
2023/10/23 00:05:44;;;;;;;6.70;3.70;;;;;;;11.58;100.00;100058.73;179694;1262;45315;-65
2023/10/23 00:09:48;;;;;;;4.80;3.80;;;;;;;11.58;100.00;100059.83;179691;1262;46109;-64
2023/10/23 00:13:52;;;;;;;7.70;5.30;;;;;;;11.62;100.00;100061.27;179721;1262;58686;-63
2023/10/23 00:17:55;;;;;;;8.90;3.40;;;;;;;11.65;100.00;100062.41;179809;1262;43785;-65
2023/10/23 00:21:58;;;;;;;7.70;3.90;;;;;;;11.69;100.00;100064.38;179667;1264;45937;-64
2023/10/23 00:26:11;;;;;;;16.00;3.60;;;;;;;11.71;100.00;100060.96;179773;1262;46070;-64
2023/10/23 00:30:14;;;;;;;10.80;4.40;;;;;;;11.81;100.00;100059.23;179735;1262;45067;-64
2023/10/23 00:34:24;;;;;;;8.90;5.30;;;;;;;11.92;100.00;100054.86;179794;1262;60477;-66
2023/10/23 00:38:28;;;;;;;6.30;3.40;;;;;;;11.99;100.00;100052.98;179600;1262;45044;-66
2023/10/23 00:42:35;;;;;;;6.60;4.10;;;;;;;12.02;100.00;100049.71;179726;1262;43599;-63
2023/10/23 00:46:39;;;;;;;11.00;4.10;;;;;;;12.07;100.00;100047.48;179672;1262;46029;-64
2023/10/23 00:50:44;;;;;;;11.90;5.00;;;;;;;12.13;100.00;100046.89;179675;1262;46106;-65
2023/10/23 00:54:50;;;;;;;11.50;4.30;;;;;;;12.23;100.00;100037.31;179627;1264;57536;-66
2023/10/23 00:58:53;;;;;;;11.60;4.00;;;;;;;12.31;100.00;100032.63;179680;1262;45936;-64
2023/10/23 01:03:01;;;;;;;6.90;3.50;;;;;;;12.33;100.00;100029.98;179863;1262;45846;-64
2023/10/23 01:07:05;;;;;;;12.30;4.20;;;;;;;12.22;100.00;100027.65;179842;1264;43777;-64
2023/10/23 01:11:08;;;;;;;7.50;3.90;;;;;;;12.17;100.00;100029.36;179934;1265;45476;-64
2023/10/23 01:15:15;;;;;;;5.20;3.70;;;;;;;12.19;100.00;100031.08;180010;1266;58669;-65
2023/10/23 01:19:21;;;;;;;9.10;5.20;;;;;;;12.09;100.00;100034.11;179971;1265;46552;-65
2023/10/23 01:23:31;;;;;;;9.60;5.30;;;;;;;12.04;100.00;100037.75;179929;1267;45961;-65
2023/10/23 01:27:35;;;;;;;11.40;4.90;;;;;;;12.09;100.00;100032.88;179711;1265;43555;-65
2023/10/23 01:31:38;;;;;;;5.00;4.50;;;;;;;12.18;100.00;100032.29;179983;1265;45877;-66
2023/10/23 01:35:42;;;;;;;8.00;4.60;;;;;;;12.22;100.00;100037.69;179921;1267;57488;-65
2023/10/23 01:39:45;;;;;;;6.40;4.30;;;;;;;12.25;100.00;100035.10;179890;1265;44739;-66
2023/10/23 01:43:48;;;;;;;5.20;4.30;;;;;;;12.24;100.00;100038.42;179913;1265;45898;-64
2023/10/23 01:47:51;;;;;;;5.60;4.80;;;;;;;12.27;100.00;100041.14;179810;1265;43591;-64
2023/10/23 01:51:54;;;;;;;10.50;4.70;;;;;;;12.34;100.00;100044.44;179969;1265;43530;-65
2023/10/23 01:56:06;;;;;;;11.70;4.70;;;;;;;12.41;100.00;100044.70;179857;1265;58792;-64
2023/10/23 02:00:10;;;;;;;6.70;3.40;;;;;;;12.49;100.00;100045.54;180005;1265;43642;-65
2023/10/23 02:04:13;;;;;;;8.10;3.40;;;;;;;12.44;100.00;100040.86;179898;1265;46058;-66
2023/10/23 02:08:23;;;;;;;19.80;5.30;;;;;;;12.29;100.00;100037.23;179712;1267;275341;-65
2023/10/23 02:12:26;;;;;;;9.00;4.50;;;;;;;12.27;100.00;100033.92;179796;1265;43819;-64
2023/10/23 02:16:34;;;;;;;13.10;5.50;;;;;;;12.30;100.00;100033.05;179747;1265;57501;-65
2023/10/23 02:20:39;;;;;;;9.60;3.90;;;;;;;12.32;100.00;100032.42;179730;1265;45887;-66
2023/10/23 02:24:47;;;;;;;6.50;3.70;;;;;;;12.27;100.00;100040.52;179888;1265;45926;-64
2023/10/23 02:28:50;;;;;;;6.20;2.80;;;;;;;12.25;100.00;100046.03;179885;1265;43733;-64
2023/10/23 02:32:55;;;;;;;3.60;2.90;;;;;;;12.30;100.00;100050.38;179814;1265;45053;-64
2023/10/23 02:36:58;;;;;;;5.40;2.70;;;;;;;12.37;100.00;100053.42;179611;1265;57494;-64
2023/10/23 02:41:02;;;;;;;8.00;3.50;;;;;;;12.46;100.00;100055.26;179883;1265;45953;-66
2023/10/23 02:45:07;;;;;;;7.30;4.10;;;;;;;12.43;100.00;100051.27;179905;1265;45878;-66
2023/10/23 02:49:11;;;;;;;5.60;3.20;;;;;;;12.45;100.00;100056.46;179924;1266;43883;-65
2023/10/23 02:53:14;;;;;;;5.70;3.20;;;;;;;12.51;100.00;100065.13;179954;1265;45129;-65
2023/10/23 02:57:17;;;;;;;5.90;3.00;;;;;;;12.58;100.00;100068.94;179969;1265;58457;-66
2023/10/23 03:01:23;;;;;;;8.10;3.30;;;;;;;12.65;100.00;100079.98;179870;1265;45024;-65
2023/10/23 03:05:27;;;;;;;6.70;3.30;;;;;;;12.70;100.00;100087.33;180064;1265;43757;-66
2023/10/23 03:09:33;;;;;;;5.70;2.70;;;;;;;12.63;100.00;100092.13;179955;1265;43572;-66
2023/10/23 03:13:36;;;;;;;4.20;2.50;;;;;;;12.54;100.00;100094.21;179958;1265;45878;-64
2023/10/23 03:17:39;;;;;;;4.50;2.70;;;;;;;12.47;100.00;100098.79;180072;1265;58597;-65
2023/10/23 03:21:43;;;;;;;4.20;2.90;;;;;;;12.40;100.00;100102.61;180123;1264;43833;-64
2023/10/23 03:25:46;;;;;;;3.70;2.80;;;;;;;12.40;100.00;100103.96;179807;1264;43713;-64
2023/10/23 03:29:50;;;;;;;5.40;2.70;;;;;;;12.47;100.00;100109.61;179921;1264;44840;-64
2023/10/23 03:33:53;;;;;;;5.10;3.50;;;;;;;12.55;100.00;100111.40;179982;1265;43925;-65
2023/10/23 03:38:12;;;;;;;3.20;2.30;;;;;;;12.63;100.00;100113.08;179871;1265;58212;-63
2023/10/23 03:42:15;;;;;;;2.80;1.80;;;;;;;12.71;100.00;100105.98;179666;1265;43587;-63
2023/10/23 03:46:19;;;;;;;4.20;2.90;;;;;;;12.70;100.00;100102.43;179844;1265;43679;-63
2023/10/23 03:50:23;;;;;;;5.50;2.80;;;;;;;12.73;100.00;100103.77;179792;1265;46138;-64
2023/10/23 03:54:26;;;;;;;6.10;2.70;;;;;;;12.77;100.00;100106.15;179827;1265;45863;-64
2023/10/23 03:58:29;;;;;;;6.30;2.80;;;;;;;12.80;100.00;100109.95;179847;1265;59392;-64
2023/10/23 04:02:32;;;;;;;3.60;2.30;;;;;;;12.84;100.00;100112.05;179736;1264;45072;-64
2023/10/23 04:07:08;;;;;;;6.90;4.30;;;;;;;12.89;100.00;100113.38;179913;1264;45106;-64
2023/10/23 04:11:14;;;;;;;14.90;8.40;;;;;;;12.96;100.00;100109.81;179946;1264;45249;-65
2023/10/23 04:15:17;;;;;;;18.30;10.80;;;;;;;12.96;100.00;100117.84;180010;1265;45890;-65
2023/10/23 04:19:20;;;;;;;20.20;10.10;;;;;;;12.85;100.00;100117.42;179962;1264;58949;-63
2023/10/23 04:23:29;;;;;;;13.10;5.90;;;;;;;12.83;100.00;100117.66;180010;1265;46320;-63
2023/10/23 04:27:32;;;;;;;11.70;5.70;;;;;;;12.84;100.00;100120.92;179762;1265;44622;-64
2023/10/23 04:31:35;;;;;;;13.10;3.90;;;;;;;12.90;100.00;100118.96;179881;1265;43977;-63
2023/10/23 04:35:39;;;;;;;10.60;3.90;;;;;;;12.87;100.00;100113.18;179930;1265;44572;-64
2023/10/23 04:39:44;;;;;;;6.40;2.50;;;;;;;12.70;100.00;100111.40;179876;1265;58582;-63
2023/10/23 04:43:55;;;;;;;4.40;2.70;;;;;;;12.58;100.00;100124.43;179598;1264;46016;-63
2023/10/23 04:47:59;;;;;;;7.20;2.40;;;;;;;12.51;100.00;100124.91;179780;1265;43713;-64
2023/10/23 04:52:05;;;;;;;5.40;2.20;;;;;;;12.45;100.00;100124.70;179800;1268;46175;-63
2023/10/23 04:56:09;;;;;;;9.80;2.70;;;;;;;12.36;100.00;100123.02;179755;1265;46023;-63
2023/10/23 05:00:13;;;;;;;7.70;3.10;;;;;;;12.31;100.00;100126.34;179907;1265;58577;-65
2023/10/23 05:04:16;;;;;;;6.70;2.50;;;;;;;12.27;100.00;100124.06;179787;1265;43834;-63
2023/10/23 05:08:19;;;;;;;3.50;1.90;;;;;;;12.25;100.00;100129.37;179809;1265;43650;-63
2023/10/23 05:13:29;;;;;;;7.00;2.70;;;;;;;12.26;100.00;100130.88;179934;1264;45163;-65
2023/10/23 05:17:35;;;;;;;5.20;3.70;;;;;;;12.34;100.00;100139.02;179844;1265;45866;-63
2023/10/23 05:21:38;;;;;;;5.10;3.10;;;;;;;12.35;100.00;100143.90;179859;1264;58367;-62
2023/10/23 05:25:41;;;;;;;6.10;3.30;;;;;;;12.44;100.00;100149.89;179847;1264;46152;-62
2023/10/23 05:29:45;;;;;;;4.80;3.50;;;;;;;12.54;100.00;100161.27;179804;1264;44660;-63
2023/10/23 05:33:49;;;;;;;5.10;2.10;;;;;;;12.66;100.00;100165.12;179865;1265;45607;-63
2023/10/23 05:37:52;;;;;;;5.70;3.20;;;;;;;12.75;100.00;100165.16;179826;1264;43529;-62
2023/10/23 05:41:55;;;;;;;4.40;2.20;;;;;;;12.83;100.00;100164.95;179709;1265;58427;-63
2023/10/23 05:46:03;;;;;;;3.70;2.00;;;;;;;12.80;100.00;100174.33;179008;1261;88672;-76
2023/10/23 05:50:07;;;;;;;3.50;2.40;;;;;;;12.84;100.00;100183.94;178375;1265;46009;-76
2023/10/23 05:54:10;;;;;;;4.70;2.10;;;;;;;12.89;100.00;100180.92;176887;1265;46136;-78
2023/10/23 05:58:13;;;;;;;8.00;1.90;;;;;;;12.98;100.00;100183.02;177447;1265;46045;-76
2023/10/23 06:02:17;;;;;;;5.70;2.30;;;;;;;13.03;100.00;100183.23;176604;1265;61009;-79
2023/10/23 06:06:19;;;;;;;4.80;2.40;;;;;;;12.99;100.00;100194.08;177192;1265;46080;-80
2023/10/23 06:10:23;;;;;;;7.20;4.10;;;;;;;13.03;100.00;100194.67;178891;1265;46479;-79
2023/10/23 06:14:25;;;;;;;10.20;4.90;;;;;;;13.01;100.00;100199.45;178950;1265;46098;-79
2023/10/23 06:18:28;;;;;;;10.60;5.00;;;;;;;13.01;100.00;100196.59;177427;1265;46247;-79
2023/10/23 06:22:31;;;;;;;11.90;6.60;;;;;;;12.98;100.00;100199.88;180202;1265;59216;-80
2023/10/23 06:26:35;;;;;;;12.30;6.50;;;;;;;12.98;100.00;100203.27;178890;1264;45983;-79
2023/10/23 06:30:37;;;;;;;18.60;7.40;;;;;;;12.99;100.00;100211.77;180416;1265;44274;-80
2023/10/23 06:34:40;;;;;;;10.10;6.00;;;;;;;13.09;100.00;100213.52;178508;1265;46001;-79
2023/10/23 06:38:44;;;;;;;8.70;4.70;;;;;;;13.10;100.00;100215.39;178605;1267;44347;-79
2023/10/23 06:42:47;;;;;;;8.00;4.00;;;;;;;13.08;100.00;100214.27;178298;1265;60502;-79
2023/10/23 06:46:50;;;;;;;7.00;4.40;;;;;;;13.10;100.00;100210.56;177128;1265;46050;-79
2023/10/23 06:50:54;;;;;;;11.00;4.50;;;;;;;13.13;100.00;100210.04;175920;1265;46001;-79
2023/10/23 06:54:57;;;;;;;5.30;4.80;;;;;;;13.16;100.00;100203.27;176960;1266;46004;-81
2023/10/23 06:59:00;;;;;;;8.60;4.60;;;;;;;13.26;100.00;100206.23;178366;1265;46144;-79
2023/10/23 07:03:04;;;;;;;7.30;4.20;;;;;;;13.43;100.00;100207.08;177493;1266;58263;-79
2023/10/23 07:07:07;;;;;;;12.40;4.70;;;;;;;13.60;100.00;100215.28;180033;1265;45989;-79
2023/10/23 07:11:30;;;;;;;7.80;4.20;;;;;;;13.73;100.00;100211.08;178199;1265;45776;-80
2023/10/23 07:15:34;;;;;;;4.70;3.70;;;;;;;13.85;100.00;100210.59;179359;1265;46049;-80
2023/10/23 07:19:37;;;;;;;8.90;4.30;;;;;;;14.01;100.00;100213.58;177582;1265;46111;-79
2023/10/23 07:23:40;;;;;;;8.60;3.90;;;;;;;14.16;100.00;100211.74;177761;1265;57916;-79
2023/10/23 07:27:44;;;;;;;6.90;3.20;;;;;;;14.32;100.00;100217.66;177123;1265;46062;-79
2023/10/23 07:31:47;;;;;;;10.20;4.30;;;;;;;14.49;100.00;100214.88;178694;1264;44293;-80
2023/10/23 07:36:09;;;;;;;9.20;4.90;;;;;;;14.77;100.00;100217.69;178215;1268;46090;-80
2023/10/23 07:40:12;;;;;;;6.50;4.70;;;;;;;15.18;100.00;100220.60;177716;1265;46388;-81
2023/10/23 07:44:16;;;;;;;4.70;3.00;;;;;;;15.41;100.00;100218.54;178262;1267;59265;-80
2023/10/23 07:48:21;;;;;;;8.80;4.60;;;;;;;15.49;100.00;100219.67;176203;1265;46027;-80
2023/10/23 07:52:26;;;;;;;13.10;3.90;;;;;;;15.59;100.00;100219.05;175863;1265;46112;-81
2023/10/23 07:56:29;;;;;;;7.50;3.40;;;;;;;15.67;100.00;100218.05;177278;1266;46123;-81
2023/10/23 08:00:32;;;;;;;5.10;3.40;;;;;;;15.72;100.00;100220.68;178025;1265;46039;-81
2023/10/23 08:04:34;;;;;;;6.30;4.00;;;;;;;15.82;100.00;100225.23;177861;1264;59698;-81
2023/10/23 08:08:40;;;;;;;8.50;3.50;;;;;;;15.91;100.00;100221.65;177012;1268;45983;-80
2023/10/23 08:12:46;;;;;;;4.00;3.40;;;;;;;16.04;100.00;100224.58;177135;1268;46024;-81
2023/10/23 08:16:52;;;;;;;9.60;3.40;;;;;;;16.17;100.00;100225.02;178208;1265;44216;-81
2023/10/23 08:20:55;;;;;;;5.30;3.00;;;;;;;16.40;100.00;100220.20;175749;1267;46145;-80
2023/10/23 08:24:58;;;;;;;10.30;4.10;;;;;;;16.54;100.00;100215.38;177601;1266;60152;-80
2023/10/23 08:29:02;;;;;;;7.20;4.00;;;;;;;16.67;100.00;100221.86;177104;1265;46119;-81
2023/10/23 08:33:08;;;;;;;9.00;3.10;;;;;;;16.75;100.00;100218.35;177342;1266;44112;-80
2023/10/23 08:37:12;;;;;;;5.30;2.90;;;;;;;16.67;100.00;100216.67;177254;1265;46696;-81
2023/10/23 08:41:15;;;;;;;9.90;3.70;;;;;;;16.64;100.00;100216.56;175818;1265;45888;-81
2023/10/23 08:45:18;;;;;;;4.90;2.60;;;;;;;16.62;100.00;100220.27;177205;1265;57060;-80
2023/10/23 08:49:22;;;;;;;5.60;2.80;;;;;;;16.64;100.00;100223.45;176482;1265;46087;-80
2023/10/23 08:53:33;;;;;;;6.90;3.70;;;;;;;16.67;100.00;100222.86;175548;1265;46130;-80
2023/10/23 08:57:41;;;;;;;7.20;3.30;;;;;;;16.63;100.00;100216.36;177927;1270;46117;-80
2023/10/23 09:01:45;;;;;;;5.60;2.60;;;;;;;16.56;100.00;100208.80;177116;1264;46062;-80
2023/10/23 09:05:49;;;;;;;9.20;3.80;;;;;;;16.59;100.00;100210.52;175440;1265;59603;-80
2023/10/23 09:09:52;;;;;;;6.70;3.10;;;;;;;16.59;100.00;100211.30;177446;1265;46046;-80
2023/10/23 09:13:55;;;;;;;7.10;3.50;;;;;;;16.59;100.00;100213.00;176008;1266;46083;-80
2023/10/23 09:17:58;;;;;;;4.40;2.30;;;;;;;16.71;100.00;100219.98;176896;1265;46116;-79
2023/10/23 09:22:12;;;;;;;4.00;2.40;;;;;;;16.77;100.00;100220.73;175543;1265;46122;-80
2023/10/23 09:26:15;;;;;;;8.60;3.30;;;;;;;16.84;100.00;100223.05;177913;1268;60303;-80
2023/10/23 09:30:22;;;;;;;5.70;2.40;;;;;;;16.94;99.90;100219.58;178402;1266;46093;-80
2023/10/23 09:34:25;;;;;;;4.80;1.70;;;;;;;16.89;97.28;100217.98;177553;1266;46186;-80
2023/10/23 09:38:29;;;;;;;5.90;2.00;;;;;;;16.86;97.86;100223.58;178652;1269;46061;-80
2023/10/23 09:42:32;;;;;;;4.30;1.50;;;;;;;16.83;96.93;100226.58;178471;1268;46010;-80
2023/10/23 09:46:36;;;;;;;10.10;3.60;;;;;;;16.86;95.71;100225.67;177109;1267;58577;-81
2023/10/23 09:50:42;;;;;;;3.20;1.90;;;;;;;16.93;95.94;100224.41;178457;1267;46116;-80
2023/10/23 09:54:49;;;;;;;8.80;2.90;;;;;;;16.94;96.29;100221.02;177526;1265;46052;-80
2023/10/23 09:58:58;;;;;;;4.40;2.60;;;;;;;17.00;97.10;100219.50;177097;1269;46667;-80
2023/10/23 10:03:08;;;;;;;8.10;3.00;;;;;;;16.99;93.89;100216.90;176263;1266;46620;-80
2023/10/23 10:07:19;;;;;;;4.90;2.90;;;;;;;16.96;95.80;100213.87;177278;1265;59329;-80
2023/10/23 10:11:22;;;;;;;9.30;2.60;;;;;;;16.92;95.46;100208.43;176902;1265;46125;-80
2023/10/23 10:15:26;;;;;;;7.10;3.90;;;;;;;16.88;97.50;100205.04;177076;1265;46152;-80
2023/10/23 10:19:30;;;;;;;4.40;3.00;;;;;;;16.94;97.37;100207.77;178260;1269;46585;-80
2023/10/23 10:23:35;;;;;;;6.90;2.70;;;;;;;17.04;97.65;100202.22;177679;1269;46162;-79
2023/10/23 10:27:38;;;;;;;5.30;2.70;;;;;;;17.13;96.82;100200.20;177320;1265;57737;-80
2023/10/23 10:32:00;;;;;;;10.20;3.30;;;;;;;17.25;96.10;100199.53;177562;1269;46073;-80
2023/10/23 10:36:07;;;;;;;19.50;3.50;;;;;;;17.42;95.26;100190.71;180091;1265;44880;-80
2023/10/23 10:40:12;;;;;;;7.90;3.30;;;;;;;17.56;94.15;100190.41;178155;1270;44339;-79
2023/10/23 10:44:16;;;;;;;5.40;2.30;;;;;;;17.64;92.25;100185.59;176918;1265;46094;-80
2023/10/23 10:48:20;;;;;;;4.40;2.20;;;;;;;17.77;92.61;100185.58;176727;1265;59254;-80
2023/10/23 10:52:30;;;;;;;9.30;3.60;;;;;;;17.88;92.69;100179.42;176145;1271;46163;-81
2023/10/23 10:56:33;;;;;;;7.50;3.30;;;;;;;17.98;92.53;100178.13;177274;1265;44152;-80
2023/10/23 11:00:38;;;;;;;13.10;4.10;;;;;;;18.11;92.59;100175.19;177637;1265;45990;-80
2023/10/23 11:04:41;;;;;;;13.20;3.30;;;;;;;18.20;90.83;100174.89;177658;1266;46103;-80
2023/10/23 11:08:46;;;;;;;16.40;3.60;;;;;;;18.28;89.68;100176.38;176412;1267;59308;-80
2023/10/23 11:12:52;;;;;;;9.50;3.10;;;;;;;18.31;90.85;100176.23;178522;1265;46158;-80
2023/10/23 11:16:56;;;;;;;11.60;3.30;;;;;;;18.37;92.55;100174.40;177194;1267;46120;-79
2023/10/23 11:21:00;;;;;;;10.70;2.90;;;;;;;18.30;88.62;100171.83;177648;1268;45994;-80
2023/10/23 11:25:06;;;;;;;5.70;2.00;;;;;;;18.36;87.42;100169.99;179344;1268;43918;-80
2023/10/23 11:29:09;;;;;;;9.70;2.70;;;;;;;18.48;88.70;100165.42;175618;1269;59617;-80
2023/10/23 11:33:13;;;;;;;5.10;2.60;;;;;;;18.49;89.58;100170.54;176093;1269;46082;-80
2023/10/23 11:37:18;;;;;;;7.10;2.70;;;;;;;18.46;88.18;100169.17;178052;1267;46123;-80
2023/10/23 11:41:21;;;;;;;8.60;1.70;;;;;;;18.47;85.77;100167.86;175442;1269;46104;-80
2023/10/23 11:45:24;;;;;;;2.50;1.30;;;;;;;18.57;86.66;100167.40;175496;1265;46073;-80
2023/10/23 11:49:27;;;;;;;3.40;2.30;;;;;;;18.68;86.84;100166.48;175965;1266;59730;-79
2023/10/23 11:53:33;;;;;;;3.40;2.20;;;;;;;18.79;86.82;100163.58;177634;1265;45665;-79
2023/10/23 11:57:37;;;;;;;;;;;;;;;18.76;85.83;100163.38;177179;1266;46005;-80
2023/10/23 12:01:41;;;;;;;11.90;3.20;;;;;;;18.70;85.80;100161.61;178241;1268;45936;-80
2023/10/23 12:05:45;;;;;;;9.00;2.80;;;;;;;18.58;86.24;100156.11;177505;1267;44385;-80
2023/10/23 12:09:48;;;;;;;7.00;3.10;;;;;;;18.53;87.80;100154.21;178083;1265;57037;-80
2023/10/23 12:13:51;;;;;;;5.40;2.00;;;;;;;18.44;86.44;100154.63;177949;1269;46169;-80
2023/10/23 12:18:03;;;;;;;3.20;1.70;;;;;;;18.38;87.07;100149.98;177424;1269;46235;-80
2023/10/23 12:22:06;;;;;;;11.80;2.90;;;;;;;18.31;86.61;100147.79;177985;1270;46133;-79
2023/10/23 12:26:11;;;;;;;9.10;2.10;;;;;;;18.21;85.90;100144.80;177227;1265;46004;-80
2023/10/23 12:30:17;;;;;;;9.50;2.90;;;;;;;18.19;85.19;100135.03;177868;1268;60081;-79
2023/10/23 12:34:30;;;;;;;11.80;3.40;;;;;;;18.13;86.23;100137.45;179025;1265;46504;-80
2023/10/23 12:38:34;;;;;;;7.40;3.40;;;;;;;18.10;86.35;100134.08;178543;1269;46221;-80
2023/10/23 12:42:39;;;;;;;5.70;2.00;;;;;;;18.07;86.51;100136.36;178474;1265;44212;-80
2023/10/23 12:46:42;;;;;;;5.80;2.30;;;;;;;18.03;86.33;100132.50;177850;1266;45256;-80
2023/10/23 12:50:49;;;;;;;15.70;3.10;;;;;;;18.00;86.05;100133.95;177197;1267;57943;-80
2023/10/23 12:54:52;;;;;;;9.90;3.20;;;;;;;17.94;86.37;100133.09;177365;1268;45716;-80
2023/10/23 12:58:55;;;;;;;5.20;2.50;;;;;;;17.97;85.96;100132.56;177373;1267;44310;-80
2023/10/23 13:02:58;;;;;;;4.20;2.80;;;;;;;17.97;85.15;100133.23;177972;1267;46038;-80
2023/10/23 13:07:02;;;;;;;6.80;3.10;;;;;;;17.96;84.37;100131.69;176924;1270;46095;-80
2023/10/23 13:11:05;;;;;;;5.50;2.20;;;;;;;18.01;84.66;100131.00;177913;1266;58191;-80
2023/10/23 13:15:09;;;;;;;5.20;2.40;;;;;;;18.02;84.25;100124.60;177507;1267;46021;-79
2023/10/23 13:19:13;;;;;;;5.80;2.50;;;;;;;18.01;84.42;100131.66;177735;1267;46069;-80
2023/10/23 13:23:16;;;;;;;4.30;2.00;;;;;;;18.04;84.36;100134.63;179406;1269;44282;-79
2023/10/23 13:27:22;;;;;;;7.10;2.80;;;;;;;18.07;84.00;100130.88;179237;1267;43838;-80
2023/10/23 13:31:31;;;;;;;4.30;1.70;;;;;;;18.17;83.23;100126.46;178932;1267;58762;-79
2023/10/23 13:35:36;;;;;;;4.60;2.30;;;;;;;18.23;82.80;100125.41;177031;1270;46093;-78
2023/10/23 13:39:41;;;;;;;5.20;2.20;;;;;;;18.29;83.73;100123.69;177009;1266;46159;-78
2023/10/23 13:43:46;;;;;;;6.40;3.00;;;;;;;18.33;82.57;100121.39;177361;1267;45973;-79
2023/10/23 13:47:50;;;;;;;10.20;3.30;;;;;;;18.38;82.43;100116.84;177583;1266;46148;-79
2023/10/23 13:52:46;;;;;;;4.00;2.00;;;;;;;18.43;82.10;100115.34;177590;1267;58300;-80
2023/10/23 13:56:49;;;;;;;9.60;3.00;;;;;;;18.49;82.06;100110.55;177844;1267;45963;-77
2023/10/23 14:00:52;;;;;;;9.20;2.80;;;;;;;18.52;82.49;100107.95;177313;1265;46127;-78
2023/10/23 14:04:55;;;;;;;5.90;2.50;;;;;;;18.42;83.06;100105.27;177709;1265;46016;-78
2023/10/23 14:08:58;;;;;;;6.80;3.60;;;;;;;18.32;82.79;100104.51;176695;1268;182058;-78
2023/10/23 14:13:21;;;;;;;3.50;2.40;;;;;;;18.27;82.67;100096.90;179088;1265;58094;-78
2023/10/23 14:17:24;;;;;;;10.50;2.80;;;;;;;18.28;82.75;100091.85;179417;1266;44224;-77
2023/10/23 14:21:28;;;;;;;8.70;3.40;;;;;;;18.25;84.01;100093.38;179106;1266;44206;-78
2023/10/23 14:25:31;;;;;;;6.50;3.50;;;;;;;18.20;84.80;100094.87;179001;1266;46015;-78
2023/10/23 14:29:34;;;;;;;3.20;2.50;;;;;;;18.13;85.00;100093.34;179392;1265;46150;-78
2023/10/23 14:33:37;;;;;;;4.40;2.80;;;;;;;18.04;87.40;100093.19;179809;1265;59655;-79
2023/10/23 14:37:41;;;;;;;6.40;2.90;;;;;;;17.97;87.30;100095.35;179961;1267;44208;-80
2023/10/23 14:41:44;;;;;;;11.60;2.80;;;;;;;17.89;87.75;100090.56;179320;1265;43881;-79
2023/10/23 14:45:51;;;;;;;3.80;2.10;;;;;;;17.81;88.79;100093.23;178898;1265;46011;-79
2023/10/23 14:49:54;;;;;;;5.40;3.10;;;;;;;17.76;88.84;100092.36;179160;1266;46120;-79
2023/10/23 14:53:57;;;;;;;8.70;4.40;;;;;;;17.70;89.04;100094.85;178479;1266;59567;-78
2023/10/23 14:58:00;;;;;;;10.90;3.20;;;;;;;17.61;91.25;100092.52;179818;1265;45960;-79
2023/10/23 15:02:03;;;;;;;6.40;2.50;;;;;;;17.47;91.88;100087.08;177040;1269;45284;-79
2023/10/23 15:06:11;;;;;;;5.90;2.20;;;;;;;17.38;93.19;100084.89;179371;1268;44863;-79
2023/10/23 15:10:15;;;;;;;10.50;5.40;;;;;;;17.24;95.65;100085.20;178451;1265;44136;-79
2023/10/23 15:14:19;;;;;;;137.70;85.60;;;;;;;17.02;98.50;100081.08;177038;1265;59309;-79
2023/10/23 15:18:22;;;;;;;168.90;110.50;;;;;;;16.82;99.05;100077.16;177530;1265;48924;-78
2023/10/23 15:22:25;;;;;;;25.10;15.60;;;;;;;16.69;99.84;100073.77;178071;1265;46032;-79
2023/10/23 15:26:29;;;;;;;12.40;5.10;;;;;;;16.53;100.00;100077.78;178516;1265;44119;-79
2023/10/23 15:30:32;;;;;;;11.20;4.00;;;;;;;16.46;100.00;100075.38;177844;1265;46660;-79
2023/10/23 15:34:35;;;;;;;37.20;30.90;;;;;;;16.40;100.00;100074.77;180332;1265;59464;-79
2023/10/23 15:38:38;;;;;;;14.80;11.60;;;;;;;16.33;100.00;100079.28;177454;1265;46113;-79
2023/10/23 15:42:42;;;;;;;16.30;10.60;;;;;;;16.17;100.00;100081.12;178464;1265;45757;-78
2023/10/23 15:46:47;;;;;;;9.70;7.10;;;;;;;15.99;100.00;100082.10;177346;1265;46156;-79
2023/10/23 15:50:50;;;;;;;11.20;5.80;;;;;;;15.84;100.00;100082.02;178983;1265;46003;-76
2023/10/23 15:54:53;;;;;;;23.90;7.20;;;;;;;15.69;100.00;100081.11;178454;1265;59291;-77
2023/10/23 15:58:56;;;;;;;8.80;5.30;;;;;;;15.53;100.00;100079.05;177723;1265;46125;-77
2023/10/23 16:03:00;;;;;;;10.00;5.40;;;;;;;15.28;100.00;100079.27;179291;1264;44299;-77
2023/10/23 16:07:03;;;;;;;19.20;6.00;;;;;;;15.10;100.00;100080.68;177414;1267;44059;-77
2023/10/23 16:11:07;;;;;;;15.40;8.60;;;;;;;14.95;100.00;100075.83;177526;1265;46098;-78
2023/10/23 16:15:15;;;;;;;10.30;6.70;;;;;;;14.81;100.00;100070.26;176648;1270;58103;-77
2023/10/23 16:19:18;;;;;;;10.80;4.20;;;;;;;14.80;100.00;100071.20;179703;1265;44465;-79
2023/10/23 16:23:21;;;;;;;10.20;5.10;;;;;;;14.84;100.00;100073.86;178153;1266;46000;-78
2023/10/23 16:27:24;;;;;;;12.10;5.30;;;;;;;14.85;100.00;100072.52;179368;1266;44139;-79
2023/10/23 16:31:27;;;;;;;8.90;5.10;;;;;;;14.85;100.00;100072.11;179141;1264;44028;-79
2023/10/23 16:35:30;;;;;;;11.80;4.60;;;;;;;14.68;100.00;100067.79;178894;1265;59765;-79
2023/10/23 16:39:33;;;;;;;7.00;4.30;;;;;;;14.47;100.00;100066.85;177885;1265;46121;-79
2023/10/23 16:43:39;;;;;;;9.00;6.50;;;;;;;14.46;100.00;100073.05;176102;1267;46050;-78
2023/10/23 16:47:44;;;;;;;28.20;18.00;;;;;;;14.39;100.00;100071.01;178146;1262;45258;-82
2023/10/23 16:51:47;;;;;;;12.90;8.60;;;;;;;14.34;100.00;100066.75;178685;1264;44140;-84
2023/10/23 16:55:52;;;;;;;41.90;32.50;;;;;;;14.31;100.00;100067.56;178590;1262;58993;-83
2023/10/23 16:59:55;;;;;;;15.90;9.40;;;;;;;14.21;100.00;100065.75;177532;1262;46445;-83
2023/10/23 17:03:58;;;;;;;12.50;5.90;;;;;;;14.21;100.00;100062.87;177417;1262;46096;-83
2023/10/23 17:08:02;;;;;;;30.60;15.70;;;;;;;14.22;100.00;100061.14;177770;1263;46112;-84
2023/10/23 17:12:05;;;;;;;20.20;10.20;;;;;;;14.22;100.00;100053.38;177376;1267;46029;-83
2023/10/23 17:16:12;;;;;;;14.70;14.00;;;;;;;14.23;100.00;100048.77;177381;1264;58838;-83
2023/10/23 17:20:16;;;;;;;9.80;4.60;;;;;;;14.19;100.00;100052.22;177119;1264;45996;-84
2023/10/23 17:24:20;;;;;;;34.00;25.20;;;;;;;14.19;100.00;100049.05;177562;1263;45884;-84
2023/10/23 17:28:23;;;;;;;30.40;15.00;;;;;;;14.13;100.00;100053.55;177528;1264;46025;-83
2023/10/23 17:32:26;;;;;;;19.50;12.30;;;;;;;13.99;100.00;100051.48;177065;1264;46355;-82
2023/10/23 17:36:32;;;;;;;32.10;19.80;;;;;;;13.91;100.00;100047.98;177104;1264;57986;-85
2023/10/23 17:40:36;;;;;;;20.40;14.10;;;;;;;13.83;100.00;100045.77;177310;1262;46070;-85
2023/10/23 17:44:39;;;;;;;22.70;18.40;;;;;;;13.69;100.00;100048.19;178293;1263;46069;-85
2023/10/23 17:48:43;;;;;;;20.60;15.80;;;;;;;13.40;100.00;100051.77;178141;1264;45258;-84
2023/10/23 17:52:48;;;;;;;24.90;15.90;;;;;;;13.19;100.00;100045.91;179774;1263;45984;-84
2023/10/23 17:56:51;;;;;;;18.10;15.10;;;;;;;13.03;100.00;100038.67;179813;1265;59297;-84
2023/10/23 18:00:55;;;;;;;28.70;19.00;;;;;;;12.97;100.00;100036.46;180274;1264;44034;-85
2023/10/23 18:04:59;;;;;;;34.80;30.80;;;;;;;12.82;100.00;100037.87;177294;1264;46114;-84
2023/10/23 18:09:04;;;;;;;50.90;38.70;;;;;;;12.72;100.00;100038.46;177394;1266;46099;-83
2023/10/23 18:13:08;;;;;;;48.90;38.80;;;;;;;12.72;100.00;100043.11;177422;1265;46300;-83
2023/10/23 18:17:15;;;;;;;41.80;33.80;;;;;;;12.70;100.00;100037.71;177557;1264;58832;-83
2023/10/23 18:21:19;;;;;;;68.40;43.60;;;;;;;12.71;100.00;100037.93;177904;1264;44531;-83
2023/10/23 18:25:22;;;;;;;26.30;16.40;;;;;;;12.76;100.00;100031.65;178350;1265;46017;-83
2023/10/23 18:29:26;;;;;;;23.90;14.80;;;;;;;12.80;100.00;100026.11;178934;1264;43874;-83
2023/10/23 18:33:34;;;;;;;31.40;15.40;;;;;;;12.79;100.00;100026.91;178338;1264;46012;-84